TimeCST,TemperatureF,Dew PointF,Humidity,Sea Level PressureIn,VisibilityMPH,Wind Direction,Wind SpeedMPH,Gust SpeedMPH,PrecipitationIn,Events,Conditions,WindDirDegrees,DateUTC
6:00 AM,73,72,95,29.94,12,NE,4.6,,,,Overcast,50,2012-10-10 12:00:00
6:00 AM,73.4,71.6,94,29.93,6.2,NE,4.6,-,N/A,,Mostly Cloudy,50,2012-10-10 12:00:00
7:00 AM,75.2,73.4,94,29.93,6.2,NNE,3.5,-,N/A,,Mostly Cloudy,30,2012-10-10 13:00:00
8:00 AM,77.0,73.4,89,29.95,6.2,NE,3.5,-,N/A,,Mostly Cloudy,50,2012-10-10 14:00:00
9:00 AM,82,74,70,29.99,12,ESE,3.5,,,,Overcast,120,2012-10-10 15:00:00
9:00 AM,82.4,73.4,74,29.97,6.2,ESE,3.5,-,N/A,,Mostly Cloudy,120,2012-10-10 15:00:00
10:00 AM,86.0,75.2,70,29.97,6.2,SSW,3.5,-,N/A,,Mostly Cloudy,200,2012-10-10 16:00:00
11:00 AM,84.2,75.2,74,29.95,6.2,SW,3.5,-,N/A,Rain,Light Rain,220,2012-10-10 17:00:00
11:13 AM,78.8,73.4,83,29.93,6.2,West,9.2,-,N/A,Rain,Rain,280,2012-10-10 17:13:00
12:00 PM,77,73,83,29.93,12,SSW,6.9,,,Rain,Rain,200,2012-10-10 18:00:00
12:00 PM,77.0,73.4,89,29.91,6.2,SSW,6.9,-,N/A,Rain,Rain,200,2012-10-10 18:00:00
1:00 PM,75.2,71.6,89,29.88,6.2,South,4.6,-,N/A,Thunderstorm,Mostly Cloudy,180,2012-10-10 19:00:00
2:00 PM,75.2,71.6,89,29.86,6.2,SSE,8.1,-,N/A,Rain,Light Rain,160,2012-10-10 20:00:00
3:00 PM,76,73,88,29.86,12,SSW,3.5,,,,Partly Cloudy,210,2012-10-10 21:00:00
3:00 PM,75.2,73.4,94,29.84,6.2,SSW,3.5,-,N/A,,Overcast,210,2012-10-10 21:00:00
4:00 PM,77.0,73.4,89,29.84,6.2,Calm,Calm,-,N/A,,Overcast,0,2012-10-10 22:00:00
5:00 PM,77.0,75.2,94,29.85,6.2,Calm,Calm,-,N/A,,Overcast,0,2012-10-10 23:00:00
6:00 PM,76,74,93,29.88,12,SSE,2.3,,,,Partly Cloudy,150,2012-10-11 00:00:00
6:00 PM,75.2,75.2,100,29.87,6.2,SSE,2.3,-,N/A,,Overcast,150,2012-10-11 00:00:00
7:00 PM,75.2,73.4,94,29.88,6.2,SSE,4.6,-,N/A,,Overcast,150,2012-10-11 01:00:00
8:00 PM,75.2,73.4,94,29.91,6.2,SE,3.5,-,N/A,,Overcast,130,2012-10-11 02:00:00